FL23 weather

Strazzulla Groves Airport
Fort Pierce, Florida, United States

Public forecast

Using degrees Fahrenheit for public forecast. Weather courtesy of forecast.io.

Closest aviation weather report (METAR) to Strazzulla Groves Airport

Closest report is St Lucie County International Airport, 8.6 nm (15.9 km) E. Retrieved 2019/10/15 00:41 UTC (0 seconds ago):

KFPR 150041Z 09005KT 10SM BKN029 26/21 A3006 RMK AO2 T02560206

Closest aviation forecast (TAF) to Strazzulla Groves Airport

Closest forecast is St Lucie County International Airport, 8.6 nm (15.9 km) E. Retrieved 2019-10-15 00:42 UTC (0 seconds ago):

TAF KFPR 142340Z 1500/1524 09006KT P6SM SKC TEMPO 1500/1501 SCT040 FM151500 11009KT P6SM SCT040 BKN200